createdAt,value
2023-03-21T00:01:57.059Z,36.50
2023-03-21T00:04:31.308Z,39.40
2023-03-21T00:07:03.876Z,35.20
2023-03-21T00:09:31.734Z,38.40
2023-03-21T00:12:02.781Z,40.70
2023-03-21T00:14:30.989Z,40.10
2023-03-21T00:16:59.045Z,39.10
2023-03-21T00:19:29.209Z,40.40
2023-03-21T00:22:07.414Z,42.50
2023-03-21T00:24:36.597Z,35.20
2023-03-21T00:29:52.676Z,35.00
2023-03-21T00:32:21.390Z,44.30
2023-03-21T00:35:38.255Z,39.20
2023-03-21T00:37:41.740Z,39.40
2023-03-21T00:40:23.058Z,42.60
2023-03-21T00:42:53.499Z,49.50
2023-03-21T00:45:22.378Z,41.80
2023-03-21T00:47:51.098Z,48.90
2023-03-21T00:50:19.849Z,46.10
2023-03-21T00:52:49.263Z,41.00
2023-03-21T00:55:19.312Z,43.10
2023-03-21T00:57:56.131Z,45.20
2023-03-21T01:00:27.686Z,43.10
2023-03-21T01:03:11.167Z,49.20
2023-03-21T01:06:02.120Z,46.40
2023-03-21T01:08:38.222Z,47.50
2023-03-21T01:11:15.610Z,44.20
2023-03-21T01:13:53.695Z,42.20
2023-03-21T01:16:25.634Z,39.00
2023-03-21T01:18:53.635Z,38.90
2023-03-21T01:21:21.398Z,39.90
2023-03-21T01:23:49.170Z,39.80
2023-03-21T01:26:17.043Z,40.40
2023-03-21T01:28:45.693Z,40.60
2023-03-21T01:31:14.030Z,42.10
2023-03-21T01:33:42.349Z,35.00
2023-03-21T01:36:14.519Z,39.40
2023-03-21T01:38:43.129Z,40.10
2023-03-21T01:41:36.822Z,39.70
2023-03-21T01:44:18.861Z,41.10
2023-03-21T01:47:03.678Z,37.70
2023-03-21T01:49:47.907Z,41.70
2023-03-21T01:52:38.653Z,40.90
2023-03-21T01:55:13.367Z,40.00
2023-03-21T01:58:05.479Z,43.20
2023-03-21T02:00:44.604Z,39.90
2023-03-21T02:03:35.024Z,36.30
2023-03-21T02:06:23.920Z,42.40
2023-03-21T02:08:57.010Z,39.10
2023-03-21T02:11:24.867Z,41.00
2023-03-21T02:14:06.772Z,35.50
2023-03-21T02:17:02.264Z,41.20
2023-03-21T02:19:52.892Z,41.30
2023-03-21T02:22:48.694Z,40.20
2023-03-21T02:25:35.722Z,39.00
2023-03-21T02:28:14.931Z,43.30
2023-03-21T02:31:03.014Z,42.50
2023-03-21T02:33:38.132Z,39.10
2023-03-21T02:36:26.416Z,40.70
2023-03-21T02:38:56.372Z,41.40
2023-03-21T02:41:29.833Z,41.90
2023-03-21T02:44:03.768Z,41.80
2023-03-21T02:46:43.841Z,40.00
2023-03-21T02:49:27.834Z,39.80
2023-03-21T02:52:00.274Z,40.00
2023-03-21T02:54:47.314Z,37.90
2023-03-21T02:57:17.406Z,40.10
2023-03-21T02:59:53.773Z,41.90
2023-03-21T03:02:28.576Z,38.80
2023-03-21T03:04:56.619Z,42.80
2023-03-21T03:07:30.889Z,39.20
2023-03-21T03:10:04.920Z,40.30
2023-03-21T03:12:36.023Z,42.00
2023-03-21T03:15:08.051Z,40.80
2023-03-21T03:17:42.932Z,45.20
2023-03-21T03:20:29.748Z,43.00
2023-03-21T03:23:13.606Z,45.10
2023-03-21T03:25:43.863Z,43.00
2023-03-21T03:28:15.972Z,42.20
2023-03-21T03:30:57.087Z,46.30
2023-03-21T03:33:33.286Z,49.10
2023-03-21T03:36:06.405Z,44.20
2023-03-21T03:38:36.339Z,50.60
2023-03-21T03:41:12.867Z,47.20
2023-03-21T03:43:48.798Z,42.80
2023-03-21T03:46:24.272Z,47.60
2023-03-21T03:48:53.742Z,46.60
2023-03-21T03:51:23.935Z,43.70
2023-03-21T03:54:32.423Z,44.60
2023-03-21T03:57:01.382Z,45.60
2023-03-21T03:59:29.457Z,43.00
2023-03-21T04:02:10.911Z,40.40
2023-03-21T04:04:39.357Z,41.80
2023-03-21T04:07:09.308Z,42.90
2023-03-21T04:09:44.799Z,41.60
2023-03-21T04:12:14.892Z,42.20
2023-03-21T04:14:45.996Z,40.70
2023-03-21T04:17:22.643Z,39.00
2023-03-21T04:19:55.505Z,39.60
2023-03-21T04:22:25.856Z,37.30
2023-03-21T04:24:54.401Z,36.70
2023-03-21T04:27:22.181Z,42.60
2023-03-21T04:30:07.464Z,45.10
2023-03-21T04:32:54.180Z,41.00
2023-03-21T04:35:22.874Z,44.70
2023-03-21T04:37:50.816Z,49.20
2023-03-21T04:40:19.062Z,47.30
2023-03-21T04:42:47.606Z,45.00
2023-03-21T04:45:15.696Z,55.30
2023-03-21T04:47:45.582Z,49.60
2023-03-21T04:50:15.930Z,52.10
2023-03-21T04:52:44.315Z,47.20
2023-03-21T04:55:12.190Z,50.50
2023-03-21T04:57:40.091Z,48.80
2023-03-21T05:00:11.345Z,49.00
2023-03-21T05:02:41.172Z,52.10
2023-03-21T05:05:11.349Z,52.60
2023-03-21T05:07:40.058Z,51.60
2023-03-21T05:10:10.713Z,52.10
2023-03-21T05:12:39.985Z,52.40
2023-03-21T05:15:08.417Z,49.00
2023-03-21T05:17:44.722Z,48.40
2023-03-21T05:20:16.161Z,52.40
2023-03-21T05:22:46.500Z,49.90
2023-03-21T05:25:18.178Z,52.70
2023-03-21T05:28:07.951Z,55.90
2023-03-21T05:30:36.465Z,50.50
2023-03-21T05:33:04.808Z,57.20
2023-03-21T05:35:32.648Z,60.80
2023-03-21T05:38:03.028Z,60.40
2023-03-21T05:40:33.950Z,55.40
2023-03-21T05:43:02.948Z,55.60
2023-03-21T05:45:32.727Z,54.30
2023-03-21T05:48:03.437Z,50.60
2023-03-21T05:50:35.094Z,49.50
2023-03-21T05:53:15.407Z,49.70
2023-03-21T05:55:45.637Z,47.30
2023-03-21T05:58:21.172Z,51.80
2023-03-21T06:00:50.474Z,43.60
2023-03-21T06:03:58.610Z,48.50
2023-03-21T06:06:29.391Z,55.40
2023-03-21T06:09:00.470Z,50.10
2023-03-21T06:11:29.662Z,49.10
2023-03-21T06:14:18.112Z,51.10
2023-03-21T06:16:47.040Z,50.50
2023-03-21T06:19:15.190Z,50.40
2023-03-21T06:22:07.105Z,50.20
2023-03-21T06:24:37.330Z,48.10
2023-03-21T06:27:08.182Z,47.20
2023-03-21T06:29:50.797Z,49.50
2023-03-21T06:32:19.604Z,47.40
2023-03-21T06:34:48.070Z,51.20
2023-03-21T06:37:17.903Z,46.10
2023-03-21T06:39:47.010Z,51.30
2023-03-21T06:42:14.924Z,46.70
2023-03-21T06:44:43.349Z,45.50
2023-03-21T06:47:15.764Z,45.30
2023-03-21T06:49:44.812Z,45.60
2023-03-21T06:52:13.244Z,46.60
2023-03-21T06:54:41.518Z,57.30
2023-03-21T06:57:20.836Z,44.80
2023-03-21T06:59:49.587Z,50.10
2023-03-21T07:02:21.200Z,51.20
2023-03-21T07:05:02.023Z,52.20
2023-03-21T07:07:31.295Z,43.90
2023-03-21T07:10:09.667Z,47.20
2023-03-21T07:13:00.022Z,48.00
2023-03-21T07:15:42.772Z,50.10
2023-03-21T07:18:11.337Z,45.90
2023-03-21T07:20:39.464Z,48.10
2023-03-21T07:23:07.521Z,45.70
2023-03-21T07:25:36.057Z,46.10
2023-03-21T07:28:09.060Z,44.70
2023-03-21T07:30:36.923Z,46.70
2023-03-21T07:33:04.785Z,41.20
2023-03-21T07:35:32.901Z,44.30
2023-03-21T07:38:03.261Z,46.40
2023-03-21T07:40:31.670Z,44.00
2023-03-21T07:42:59.572Z,50.50
2023-03-21T07:45:33.158Z,43.10
2023-03-21T07:48:01.719Z,40.60
2023-03-21T07:50:32.802Z,47.30
2023-03-21T07:53:01.824Z,38.40
2023-03-21T07:55:29.858Z,40.70
2023-03-21T07:57:58.581Z,39.20
2023-03-21T08:00:27.059Z,44.10
2023-03-21T08:02:58.552Z,42.80
2023-03-21T08:05:37.014Z,38.80
2023-03-21T08:08:05.610Z,39.70
2023-03-21T08:10:33.880Z,40.00
2023-03-21T08:13:03.169Z,38.20
2023-03-21T08:15:31.752Z,42.90
2023-03-21T08:17:59.853Z,44.90
2023-03-21T08:20:31.193Z,43.60
2023-03-21T08:22:59.167Z,48.20
2023-03-21T08:25:27.022Z,47.10
2023-03-21T08:27:54.776Z,43.20
2023-03-21T08:30:23.230Z,38.00
2023-03-21T08:32:51.266Z,40.60
2023-03-21T08:35:20.489Z,43.70
2023-03-21T08:37:49.488Z,45.30
2023-03-21T08:40:18.256Z,43.70
2023-03-21T08:42:49.625Z,42.10
2023-03-21T08:45:17.770Z,41.10
2023-03-21T08:47:47.822Z,38.50
2023-03-21T08:50:17.087Z,35.30
2023-03-21T08:52:44.985Z,40.60
2023-03-21T08:55:12.894Z,37.10
2023-03-21T08:57:41.838Z,33.20
2023-03-21T09:00:14.933Z,41.00
2023-03-21T09:02:48.368Z,41.80
2023-03-21T09:05:17.109Z,44.70
2023-03-21T09:07:45.746Z,37.00
2023-03-21T09:10:21.077Z,41.30
2023-03-21T09:12:54.980Z,38.60
2023-03-21T09:15:24.990Z,37.40
2023-03-21T09:17:54.755Z,34.90
2023-03-21T09:20:26.474Z,36.90
2023-03-21T09:22:55.368Z,37.20
2023-03-21T09:25:23.847Z,30.60
2023-03-21T09:27:51.923Z,37.20
2023-03-21T09:30:20.834Z,38.70
2023-03-21T09:32:50.628Z,33.70
2023-03-21T09:35:19.130Z,33.80
2023-03-21T09:37:48.268Z,35.30
2023-03-21T09:40:21.138Z,32.90
2023-03-21T09:42:52.455Z,34.40
2023-03-21T09:45:36.017Z,32.90
2023-03-21T09:48:07.633Z,29.10
2023-03-21T09:50:36.816Z,22.80
2023-03-21T09:53:11.112Z,23.60
2023-03-21T09:55:40.723Z,28.60
2023-03-21T09:58:16.164Z,22.30
2023-03-21T10:03:20.206Z,22.60
2023-03-21T10:05:49.064Z,30.70
2023-03-21T10:08:24.395Z,35.50
2023-03-21T10:10:56.975Z,28.40
2023-03-21T10:13:36.045Z,30.20
2023-03-21T10:16:10.378Z,24.40
2023-03-21T10:18:38.177Z,23.70
2023-03-21T10:21:12.105Z,30.30
2023-03-21T10:23:40.404Z,23.80
2023-03-21T10:26:08.217Z,23.30
2023-03-21T10:28:52.006Z,24.20
2023-03-21T10:31:26.199Z,21.60
2023-03-21T10:33:59.551Z,23.50
2023-03-21T10:36:28.278Z,24.10
2023-03-21T10:38:57.388Z,24.30
2023-03-21T10:41:25.590Z,27.00
2023-03-21T10:44:14.739Z,22.30
2023-03-21T10:46:52.428Z,19.10
2023-03-21T10:49:21.649Z,25.00
2023-03-21T10:51:49.962Z,28.00
2023-03-21T10:54:21.558Z,25.40
2023-03-21T10:56:57.258Z,21.30
2023-03-21T10:59:25.474Z,24.20
2023-03-21T11:01:55.632Z,28.90
2023-03-21T11:04:26.924Z,24.40
2023-03-21T11:06:55.019Z,28.10
2023-03-21T11:09:25.284Z,28.40
2023-03-21T11:12:01.917Z,25.50
2023-03-21T11:14:38.872Z,29.80
2023-03-21T11:17:28.526Z,29.80
2023-03-21T11:19:59.511Z,28.20
2023-03-21T11:22:30.992Z,30.10
2023-03-21T11:25:01.310Z,28.00
2023-03-21T11:27:30.182Z,27.90
2023-03-21T11:29:59.838Z,30.70
2023-03-21T11:32:34.881Z,27.90
2023-03-21T11:35:02.782Z,31.50
2023-03-21T11:37:33.952Z,25.90
2023-03-21T11:40:19.442Z,28.30
2023-03-21T11:42:49.646Z,25.80
2023-03-21T11:45:39.359Z,26.30
2023-03-21T11:48:13.992Z,19.90
2023-03-21T11:50:44.209Z,20.50
2023-03-21T11:53:33.054Z,25.60
2023-03-21T11:56:12.284Z,22.80
2023-03-21T11:58:40.315Z,23.30
2023-03-21T12:01:27.684Z,23.60
2023-03-21T12:04:07.904Z,19.80
2023-03-21T12:06:37.787Z,22.30
2023-03-21T12:09:10.202Z,21.70
2023-03-21T12:11:41.309Z,22.30
2023-03-21T12:14:11.447Z,21.60
2023-03-21T12:16:43.530Z,19.80
2023-03-21T12:19:29.977Z,22.60
2023-03-21T12:22:03.876Z,21.70
2023-03-21T12:24:33.367Z,21.00
2023-03-21T12:27:11.439Z,22.60
2023-03-21T12:29:52.255Z,22.50
2023-03-21T12:32:40.382Z,22.40
2023-03-21T12:35:17.432Z,18.50
2023-03-21T12:37:52.036Z,17.20
2023-03-21T12:40:31.578Z,17.20
2023-03-21T12:43:18.243Z,18.50
2023-03-21T12:45:47.590Z,20.50
2023-03-21T12:48:24.615Z,18.70
2023-03-21T12:50:53.757Z,20.80
2023-03-21T12:53:38.247Z,20.70
2023-03-21T12:56:07.820Z,18.50
2023-03-21T12:58:41.572Z,17.00
2023-03-21T13:01:11.131Z,15.90
2023-03-21T13:03:45.531Z,16.20
2023-03-21T13:06:14.905Z,15.00
2023-03-21T13:08:46.273Z,12.80
2023-03-21T13:11:15.604Z,17.00
2023-03-21T13:13:43.752Z,18.30
2023-03-21T13:16:17.716Z,19.20
2023-03-21T13:18:53.480Z,17.00
2023-03-21T13:21:28.583Z,20.70
2023-03-21T13:24:02.565Z,19.00
2023-03-21T13:26:40.647Z,17.80
2023-03-21T13:29:15.563Z,13.10
2023-03-21T13:31:52.085Z,15.40
2023-03-21T13:34:22.461Z,14.10
2023-03-21T13:36:53.507Z,18.10
2023-03-21T13:39:24.749Z,16.20
2023-03-21T13:41:54.667Z,13.20
2023-03-21T13:44:32.436Z,13.70
2023-03-21T13:47:01.539Z,15.90
2023-03-21T13:49:34.279Z,15.20
2023-03-21T13:52:12.104Z,18.40
2023-03-21T13:54:48.241Z,15.60
2023-03-21T13:57:32.112Z,15.80
2023-03-21T14:00:15.705Z,16.00
2023-03-21T14:02:56.721Z,17.70
2023-03-21T14:05:24.781Z,18.20
2023-03-21T14:07:59.422Z,18.30
2023-03-21T14:10:37.548Z,17.60
2023-03-21T14:13:06.152Z,20.60
2023-03-21T14:15:54.876Z,18.00
2023-03-21T14:18:34.926Z,13.90
2023-03-21T14:23:42.264Z,23.30
2023-03-21T14:26:10.972Z,21.60
2023-03-21T14:28:39.318Z,26.70
2023-03-21T14:31:07.225Z,23.80
2023-03-21T14:33:37.773Z,25.00
2023-03-21T14:36:19.479Z,26.30
2023-03-21T14:38:54.437Z,25.00
2023-03-21T14:41:26.387Z,25.80
2023-03-21T14:44:14.682Z,26.10
2023-03-21T14:46:45.210Z,29.90
2023-03-21T14:49:20.316Z,26.70
2023-03-21T14:51:48.224Z,27.00
2023-03-21T14:54:17.867Z,26.30
2023-03-21T14:56:47.841Z,28.50
2023-03-21T14:59:18.911Z,32.40
2023-03-21T15:01:47.273Z,29.70
2023-03-21T15:04:15.472Z,28.40
2023-03-21T15:06:53.539Z,25.20
2023-03-21T15:09:22.880Z,27.30
2023-03-21T15:11:51.957Z,29.50
2023-03-21T15:14:23.536Z,27.30
2023-03-21T15:16:52.908Z,28.90
2023-03-21T15:19:34.322Z,27.90
2023-03-21T15:22:07.769Z,29.60
2023-03-21T15:24:37.389Z,23.40
2023-03-21T15:27:06.491Z,24.40
2023-03-21T15:29:36.935Z,24.10
2023-03-21T15:32:05.860Z,25.70
2023-03-21T15:34:33.826Z,23.60
2023-03-21T15:37:02.395Z,22.80
2023-03-21T15:39:30.428Z,20.30
2023-03-21T15:42:06.141Z,18.30
2023-03-21T15:44:34.223Z,18.10
2023-03-21T15:47:02.439Z,18.30
2023-03-21T15:49:33.953Z,18.50
2023-03-21T15:52:06.837Z,19.20
2023-03-21T15:54:40.593Z,19.10
2023-03-21T15:57:19.977Z,18.40
2023-03-21T15:59:47.926Z,20.20
2023-03-21T16:02:19.852Z,18.60
2023-03-21T16:04:56.974Z,18.00
2023-03-21T16:07:25.380Z,20.00
2023-03-21T16:09:57.509Z,20.00
2023-03-21T16:12:25.424Z,23.30
2023-03-21T16:14:55.422Z,21.70
2023-03-21T16:17:27.848Z,20.90
2023-03-21T16:19:56.760Z,20.10
2023-03-21T16:22:24.749Z,22.50
2023-03-21T16:24:57.929Z,18.40
2023-03-21T16:27:26.135Z,16.00
2023-03-21T16:29:53.992Z,17.00
2023-03-21T16:32:24.047Z,16.00
2023-03-21T16:34:53.629Z,15.50
2023-03-21T16:37:21.799Z,15.70
2023-03-21T16:39:49.678Z,17.80
2023-03-21T16:42:17.752Z,18.20
2023-03-21T16:44:47.350Z,16.60
2023-03-21T16:47:18.395Z,18.00
2023-03-21T16:49:46.620Z,21.10
2023-03-21T16:52:15.079Z,18.30
2023-03-21T16:54:42.918Z,22.70
2023-03-21T16:57:20.000Z,20.70
2023-03-21T16:59:48.785Z,24.40
2023-03-21T17:02:17.056Z,28.90
2023-03-21T17:04:45.146Z,27.90
2023-03-21T17:07:15.832Z,33.30
2023-03-21T17:09:44.542Z,31.70
2023-03-21T17:12:16.287Z,36.70
2023-03-21T17:14:44.590Z,33.00
2023-03-21T17:17:16.055Z,23.70
2023-03-21T17:19:44.315Z,34.40
2023-03-21T17:22:14.554Z,40.50
2023-03-21T17:24:43.030Z,45.50
2023-03-21T17:27:11.716Z,43.50
2023-03-21T17:29:39.884Z,47.90
2023-03-21T17:32:07.819Z,44.20
2023-03-21T17:34:35.737Z,31.30
2023-03-21T17:37:09.079Z,35.30
2023-03-21T17:39:38.244Z,28.50
2023-03-21T17:42:06.640Z,29.50
2023-03-21T17:44:36.344Z,26.10
2023-03-21T17:47:04.322Z,28.60
2023-03-21T17:49:37.969Z,31.70
2023-03-21T17:52:05.765Z,30.80
2023-03-21T17:54:33.547Z,29.90
2023-03-21T17:57:01.375Z,30.30
2023-03-21T17:59:29.266Z,30.40
2023-03-21T18:02:04.620Z,28.90
2023-03-21T18:04:33.032Z,28.90
2023-03-21T18:07:01.438Z,28.30
2023-03-21T18:09:29.892Z,31.00
2023-03-21T18:11:58.564Z,27.60
2023-03-21T18:14:28.910Z,29.00
2023-03-21T18:16:58.246Z,30.90
2023-03-21T18:21:31.268Z,30.70
2023-03-21T18:23:59.640Z,30.30
2023-03-21T18:26:26.118Z,29.30
2023-03-21T18:29:43.975Z,27.60
2023-03-21T18:31:39.666Z,25.10
2023-03-21T18:34:06.241Z,25.50
2023-03-21T18:36:35.572Z,24.30
2023-03-21T18:39:03.137Z,26.10
2023-03-21T18:41:32.427Z,23.40
2023-03-21T18:44:01.562Z,24.10
2023-03-21T18:46:39.741Z,33.60
2023-03-21T18:49:35.886Z,28.70
2023-03-21T18:51:54.490Z,30.60
2023-03-21T18:54:20.895Z,27.20
2023-03-21T18:59:38.529Z,31.80
2023-03-21T19:02:05.509Z,29.70
2023-03-21T19:04:33.304Z,31.80
2023-03-21T19:07:00.417Z,24.70
2023-03-21T19:09:31.228Z,24.80
2023-03-21T19:11:59.960Z,29.30
2023-03-21T19:14:26.635Z,26.70
2023-03-21T19:17:37.822Z,28.50
2023-03-21T19:19:44.555Z,29.30
2023-03-21T19:22:11.958Z,33.90
2023-03-21T19:24:39.704Z,23.10
2023-03-21T19:27:06.256Z,23.80
2023-03-21T19:29:33.778Z,21.10
2023-03-21T19:32:00.532Z,22.50
2023-03-21T19:34:28.745Z,22.70
2023-03-21T19:36:56.684Z,21.90
2023-03-21T19:39:30.253Z,24.00
2023-03-21T19:42:12.488Z,28.60
2023-03-21T19:44:41.848Z,28.90
2023-03-21T19:47:08.357Z,24.50
2023-03-21T19:50:00.692Z,28.80
2023-03-21T19:52:21.176Z,23.60
2023-03-21T19:54:47.823Z,24.40
2023-03-21T19:57:15.366Z,21.10
2023-03-21T19:59:42.935Z,25.00
2023-03-21T20:02:33.874Z,19.60
2023-03-21T20:04:57.660Z,23.40
2023-03-21T20:07:25.360Z,24.40
2023-03-21T20:09:54.273Z,22.80
2023-03-21T20:12:22.442Z,24.90
2023-03-21T20:14:58.021Z,24.40
2023-03-21T20:17:31.391Z,24.10
2023-03-21T20:19:59.423Z,23.20
2023-03-21T20:22:46.094Z,17.80
2023-03-21T20:25:16.788Z,20.30
2023-03-21T20:27:43.458Z,19.50
2023-03-21T20:30:14.238Z,20.60
2023-03-21T20:32:42.127Z,20.40
2023-03-21T20:35:19.097Z,23.20
2023-03-21T20:37:49.222Z,22.60
2023-03-21T20:40:19.118Z,23.90
2023-03-21T20:42:48.573Z,26.10
2023-03-21T20:45:15.837Z,25.50
2023-03-21T20:47:42.732Z,24.00
2023-03-21T20:50:10.554Z,22.00
2023-03-21T20:53:00.864Z,23.30
2023-03-21T20:55:26.856Z,19.80
2023-03-21T20:57:54.236Z,20.80
2023-03-21T21:00:21.557Z,22.30
2023-03-21T21:02:49.446Z,27.50
2023-03-21T21:05:34.601Z,25.60
2023-03-21T21:08:03.035Z,26.20
2023-03-21T21:10:31.574Z,27.70
2023-03-21T21:12:58.010Z,25.30
2023-03-21T21:15:26.589Z,26.10
2023-03-21T21:18:11.271Z,25.10
2023-03-21T21:20:38.082Z,26.10
2023-03-21T21:23:09.712Z,22.00
2023-03-21T21:25:37.670Z,23.20
2023-03-21T21:28:08.289Z,22.10
2023-03-21T21:30:37.340Z,21.60
2023-03-21T21:33:04.678Z,24.80
2023-03-21T21:35:32.874Z,21.60
2023-03-21T21:38:00.128Z,25.50
2023-03-21T21:40:26.587Z,25.30
2023-03-21T21:42:53.202Z,22.20
2023-03-21T21:45:19.678Z,23.80
2023-03-21T21:47:46.358Z,23.50
2023-03-21T21:50:14.887Z,21.80
2023-03-21T21:52:43.112Z,22.90
2023-03-21T21:55:12.498Z,21.20
2023-03-21T21:57:39.108Z,21.10
2023-03-21T22:00:06.114Z,22.40
2023-03-21T22:02:40.538Z,23.20
2023-03-21T22:05:08.245Z,28.90
2023-03-21T22:07:40.161Z,26.90
2023-03-21T22:10:07.433Z,23.70
2023-03-21T22:12:33.944Z,17.50
2023-03-21T22:15:03.576Z,19.60
2023-03-21T22:17:30.616Z,21.10
2023-03-21T22:20:05.695Z,18.70
2023-03-21T22:22:36.024Z,17.10
2023-03-21T22:25:03.757Z,16.80
2023-03-21T22:27:30.488Z,22.20
2023-03-21T22:30:03.710Z,22.10
2023-03-21T22:32:31.487Z,21.60
2023-03-21T22:34:58.200Z,18.40
2023-03-21T22:37:25.977Z,16.00
2023-03-21T22:39:52.404Z,18.30
2023-03-21T22:42:22.387Z,17.90
2023-03-21T22:44:48.745Z,16.60
2023-03-21T22:47:15.457Z,19.90
2023-03-21T22:49:44.348Z,15.40
2023-03-21T22:52:10.908Z,18.80
2023-03-21T22:54:42.375Z,19.20
2023-03-21T22:57:08.742Z,19.70
2023-03-21T22:59:35.121Z,17.80
2023-03-21T23:02:02.116Z,16.20
2023-03-21T23:04:28.800Z,16.10
2023-03-21T23:06:55.345Z,16.50
2023-03-21T23:09:21.828Z,14.30
2023-03-21T23:11:49.080Z,15.60
2023-03-21T23:14:16.031Z,17.60
2023-03-21T23:16:42.463Z,16.80
2023-03-21T23:19:09.782Z,17.50
2023-03-21T23:21:43.668Z,17.90
2023-03-21T23:24:11.148Z,16.10
2023-03-21T23:26:37.744Z,14.90
2023-03-21T23:29:09.974Z,15.80
2023-03-21T23:31:37.563Z,17.70
2023-03-21T23:34:04.061Z,15.00
2023-03-21T23:36:30.563Z,13.80
2023-03-21T23:38:57.434Z,16.50
2023-03-21T23:41:26.247Z,12.90
2023-03-21T23:43:53.000Z,15.40
2023-03-21T23:46:20.962Z,13.30
2023-03-21T23:48:47.693Z,15.90
2023-03-21T23:53:57.868Z,13.40
2023-03-21T23:56:24.827Z,14.30
2023-03-21T23:58:56.345Z,14.10
